Time;durP1;ratioP1;P1;durP2;ratioP2;P2;SDS_P1;SDS_P2;PMS_P1;PMS_P2;Temp;Humidity;BMP_temperature;BMP_pressure;BME280_temperature;BME280_humidity;BME280_pressure;Samples;Min_cycle;Max_cycle;Signal;HPM_P1;HPM_P2
2021/09/18 00:04:17;;;;;;;13.93;9.80;;;;;;;11.31;83.61;100545.56;8603406;33;20227;-73
2021/09/18 00:09:20;;;;;;;14.07;10.18;;;;;;;11.20;83.70;100543.75;8603569;33;21175;-73
2021/09/18 00:14:24;;;;;;;14.93;10.60;;;;;;;11.08;84.17;100540.19;8603117;33;20470;-73
2021/09/18 00:19:27;;;;;;;18.67;10.98;;;;;;;11.04;84.53;100544.09;8603131;33;20300;-73
2021/09/18 00:24:31;;;;;;;15.45;9.90;;;;;;;10.98;84.83;100545.44;8601287;33;20596;-73
2021/09/18 00:29:35;;;;;;;14.95;9.75;;;;;;;11.07;84.56;100551.91;8602977;33;20727;-73
2021/09/18 00:34:38;;;;;;;14.57;9.18;;;;;;;11.03;84.23;100543.25;8602894;33;20285;-74
2021/09/18 00:39:41;;;;;;;13.82;9.25;;;;;;;11.04;84.03;100544.09;8603716;33;21122;-73
2021/09/18 00:44:45;;;;;;;15.35;9.73;;;;;;;10.98;83.57;100550.81;8602893;33;20239;-73
2021/09/18 00:49:48;;;;;;;17.70;10.15;;;;;;;10.75;84.06;100549.09;8603373;33;20181;-73
2021/09/18 00:54:51;;;;;;;17.27;9.88;;;;;;;10.73;84.20;100551.91;8601956;33;20142;-73
2021/09/18 01:00:01;;;;;;;73.95;16.75;;;;;;;10.59;84.42;100544.94;8602002;33;20146;-73
2021/09/18 01:05:06;;;;;;;15.98;10.25;;;;;;;10.58;85.02;100553.13;8601188;33;20835;-73
2021/09/18 01:10:11;;;;;;;16.20;10.80;;;;;;;10.59;84.66;100547.63;8602076;33;20199;-73
2021/09/18 01:15:16;;;;;;;16.67;10.32;;;;;;;10.66;84.63;100547.13;8601908;33;20166;-73
2021/09/18 01:20:19;;;;;;;12.55;9.05;;;;;;;10.66;84.49;100553.38;8601134;33;20185;-73
2021/09/18 01:25:24;;;;;;;17.30;10.10;;;;;;;10.64;84.01;100541.91;8601483;33;20149;-73
2021/09/18 01:30:31;;;;;;;15.05;9.77;;;;;;;10.62;84.06;100554.59;8601751;33;20821;-73
2021/09/18 01:35:34;;;;;;;12.45;8.63;;;;;;;10.53;83.94;100560.66;8601572;33;20458;-73
2021/09/18 01:40:43;;;;;;;16.30;9.45;;;;;;;10.56;83.86;100552.41;8601032;33;20270;-73
2021/09/18 01:45:46;;;;;;;15.30;9.82;;;;;;;10.48;83.35;100553.00;8600412;33;21525;-73
2021/09/18 01:50:54;;;;;;;11.23;8.05;;;;;;;10.48;83.74;100554.81;8600772;33;20709;-73
2021/09/18 01:55:58;;;;;;;14.00;8.90;;;;;;;10.50;83.51;100551.03;8600184;33;20186;-73
2021/09/18 02:01:03;;;;;;;12.82;8.52;;;;;;;10.47;83.23;100547.72;8600922;33;20146;-73
2021/09/18 02:06:07;;;;;;;14.20;8.40;;;;;;;10.47;83.11;100545.03;8599438;33;20185;-73
2021/09/18 02:11:11;;;;;;;13.15;8.07;;;;;;;10.37;82.45;100551.13;8600807;33;20276;-73
2021/09/18 02:16:14;;;;;;;10.98;7.65;;;;;;;10.32;82.74;100549.78;8599909;33;20177;-73
2021/09/18 02:21:18;;;;;;;12.15;8.18;;;;;;;10.25;82.72;100548.53;8600576;33;20185;-73
2021/09/18 02:26:22;;;;;;;10.80;8.23;;;;;;;10.13;82.43;100547.66;8598435;33;21509;-73
2021/09/18 02:31:25;;;;;;;14.43;8.30;;;;;;;10.10;82.49;100554.13;8600291;33;20442;-74
2021/09/18 02:36:28;;;;;;;12.25;8.40;;;;;;;10.13;82.49;100553.03;8598345;33;20154;-73
2021/09/18 02:41:33;;;;;;;12.55;8.18;;;;;;;10.05;82.39;100553.59;8600292;33;20185;-74
2021/09/18 02:46:36;;;;;;;12.23;7.78;;;;;;;9.97;82.10;100544.44;8597957;33;20196;-75
2021/09/18 02:51:39;;;;;;;14.20;9.13;;;;;;;9.87;81.99;100545.16;8599762;33;20180;-76
2021/09/18 02:56:43;;;;;;;16.25;9.07;;;;;;;9.81;82.09;100542.88;8598862;33;20197;-75
2021/09/18 03:01:46;;;;;;;13.60;8.75;;;;;;;9.79;82.10;100546.63;8599970;33;20177;-75
2021/09/18 03:06:50;;;;;;;12.93;8.50;;;;;;;9.76;81.95;100547.72;8599867;33;20189;-75
2021/09/18 03:11:54;;;;;;;19.90;10.27;;;;;;;9.73;81.83;100543.44;8600352;33;21337;-75
2021/09/18 03:16:57;;;;;;;28.60;10.98;;;;;;;9.69;82.08;100558.06;8598981;33;20192;-75
2021/09/18 03:22:00;;;;;;;17.35;9.18;;;;;;;9.62;82.05;100547.91;8603088;33;20157;-75
2021/09/18 03:27:05;;;;;;;40.17;11.55;;;;;;;9.59;82.36;100540.94;8600207;33;20150;-76
2021/09/18 03:32:08;;;;;;;19.40;9.73;;;;;;;9.52;82.18;100547.75;8602571;33;20607;-75
2021/09/18 03:37:11;;;;;;;51.95;12.15;;;;;;;9.54;82.54;100548.47;8603593;33;20169;-75
2021/09/18 03:42:16;;;;;;;16.00;10.15;;;;;;;9.68;83.10;100550.13;8604404;33;20142;-75
2021/09/18 03:47:19;;;;;;;56.35;12.48;;;;;;;9.81;83.23;100555.44;8603292;33;20693;-75
2021/09/18 03:52:25;;;;;;;60.38;13.40;;;;;;;9.80;83.11;100549.22;8603625;33;20280;-76
2021/09/18 03:57:30;;;;;;;40.67;11.30;;;;;;;9.75;83.40;100556.75;8602831;33;20204;-76
2021/09/18 04:02:33;;;;;;;16.42;10.88;;;;;;;9.84;83.72;100564.09;8603427;33;20199;-75
2021/09/18 04:07:38;;;;;;;46.78;10.98;;;;;;;9.96;83.26;100548.09;8602858;33;20193;-75
2021/09/18 04:12:42;;;;;;;26.38;7.85;;;;;;;9.76;82.84;100541.50;8603332;33;20192;-75
2021/09/18 04:17:45;;;;;;;12.73;6.85;;;;;;;9.57;82.87;100552.75;8603929;33;20196;-75
2021/09/18 04:22:48;;;;;;;10.55;6.68;;;;;;;9.39;82.35;100560.34;8619751;33;20210;-75
2021/09/18 04:27:53;;;;;;;7.95;6.25;;;;;;;9.25;82.56;100564.03;8610209;33;20200;-75
2021/09/18 04:32:56;;;;;;;8.82;6.63;;;;;;;9.23;82.95;100566.81;8603824;33;20185;-75
2021/09/18 04:37:59;;;;;;;7.40;6.10;;;;;;;9.28;83.04;100577.19;8603108;33;20468;-75
2021/09/18 04:43:04;;;;;;;11.68;7.40;;;;;;;9.26;82.78;100571.94;8602301;33;20186;-76
2021/09/18 04:48:07;;;;;;;11.38;7.80;;;;;;;9.31;82.63;100573.44;8600581;33;20193;-75
2021/09/18 04:53:10;;;;;;;11.43;7.45;;;;;;;9.25;82.38;100574.75;8602095;33;20867;-75
2021/09/18 04:58:15;;;;;;;9.82;7.70;;;;;;;9.00;82.50;100581.88;8600520;33;20253;-74
2021/09/18 05:03:18;;;;;;;9.70;7.57;;;;;;;8.96;82.51;100588.41;8601913;33;20171;-75
2021/09/18 05:08:21;;;;;;;9.15;6.80;;;;;;;8.93;82.41;100591.31;8601904;33;20284;-75
2021/09/18 05:13:26;;;;;;;6.40;5.50;;;;;;;9.00;82.46;100587.22;8601875;33;20632;-75
2021/09/18 05:18:30;;;;;;;8.23;5.88;;;;;;;9.11;81.95;100594.50;8601516;33;21899;-75
2021/09/18 05:23:33;;;;;;;7.50;5.88;;;;;;;9.01;81.59;100605.00;8604192;33;20406;-75
2021/09/18 05:28:38;;;;;;;8.38;6.03;;;;;;;9.01;81.98;100602.34;8601270;33;20441;-75
2021/09/18 05:33:41;;;;;;;10.85;6.90;;;;;;;9.02;81.19;100611.22;8601981;33;21143;-75
2021/09/18 05:38:44;;;;;;;6.90;5.28;;;;;;;8.89;81.36;100605.91;8602458;33;21714;-75
2021/09/18 05:43:49;;;;;;;8.30;6.05;;;;;;;8.92;81.51;100610.19;8601749;33;20172;-75
2021/09/18 05:48:52;;;;;;;6.35;5.63;;;;;;;9.11;81.55;100612.41;8602160;33;20330;-75
2021/09/18 05:53:55;;;;;;;37.75;7.03;;;;;;;9.21;80.99;100614.31;8601126;33;20276;-75
2021/09/18 05:58:59;;;;;;;39.38;6.55;;;;;;;9.29;80.58;100616.44;8602064;33;20288;-75
2021/09/18 06:04:03;;;;;;;22.92;7.53;;;;;;;9.31;80.61;100627.06;8601688;33;20184;-74
2021/09/18 06:09:06;;;;;;;9.20;6.18;;;;;;;9.37;80.63;100622.09;8602382;33;20181;-74
2021/09/18 06:14:10;;;;;;;16.83;7.78;;;;;;;9.51;80.38;100630.00;8601569;33;21446;-75
2021/09/18 06:19:18;;;;;;;27.13;7.97;;;;;;;9.44;79.60;100633.25;8602409;33;20160;-74
2021/09/18 06:24:21;;;;;;;10.20;6.72;;;;;;;9.39;80.32;100636.25;8601426;33;20185;-74
2021/09/18 06:29:26;;;;;;;36.33;10.25;;;;;;;9.69;80.32;100635.00;8599457;33;20695;-74
2021/09/18 06:34:30;;;;;;;10.30;8.15;;;;;;;9.97;79.77;100630.31;8597766;33;20243;-74
2021/09/18 06:39:33;;;;;;;10.93;7.90;;;;;;;10.31;79.27;100633.97;8599815;33;20208;-74
2021/09/18 06:44:40;;;;;;;81.90;11.80;;;;;;;10.36;77.98;100635.34;8596997;33;20203;-75
2021/09/18 06:49:44;;;;;;;29.27;8.55;;;;;;;10.36;78.08;100631.81;8575742;33;20228;-75
2021/09/18 06:54:47;;;;;;;19.42;8.05;;;;;;;10.50;77.89;100644.16;8597453;33;20272;-75
2021/09/18 06:59:52;;;;;;;31.98;8.10;;;;;;;10.71;77.53;100644.38;8602311;33;20195;-75
2021/09/18 07:04:57;;;;;;;8.02;6.78;;;;;;;10.81;77.57;100653.44;8604347;33;21375;-75
2021/09/18 07:10:00;;;;;;;20.00;7.05;;;;;;;10.98;76.60;100646.72;8607050;33;20193;-75
2021/09/18 07:15:07;;;;;;;28.17;8.15;;;;;;;11.27;76.78;100657.88;8607866;33;21388;-75
2021/09/18 07:20:12;;;;;;;25.73;7.63;;;;;;;11.43;76.48;100652.97;8600558;33;20200;-75
2021/09/18 07:25:15;;;;;;;19.38;8.75;;;;;;;11.72;76.49;100650.63;8607699;33;21384;-74
2021/09/18 07:30:20;;;;;;;12.32;7.65;;;;;;;11.98;75.13;100655.69;8598183;33;20202;-75
2021/09/18 07:35:23;;;;;;;8.00;7.18;;;;;;;12.11;74.78;100658.25;8602946;33;20535;-75
2021/09/18 07:40:26;;;;;;;11.85;7.43;;;;;;;12.37;74.27;100648.88;8605629;33;20642;-75
2021/09/18 07:45:31;;;;;;;17.38;8.13;;;;;;;12.92;73.73;100651.38;8605428;33;20714;-74
2021/09/18 07:50:34;;;;;;;13.38;7.65;;;;;;;13.21;72.05;100661.44;8606117;33;20489;-75
2021/09/18 07:55:37;;;;;;;14.73;7.72;;;;;;;13.43;72.51;100666.69;8605727;33;20153;-75
2021/09/18 08:00:50;;;;;;;9.95;7.72;;;;;;;13.44;71.48;100672.94;8603850;33;20623;-75
2021/09/18 08:05:53;;;;;;;12.48;7.90;;;;;;;13.78;70.21;100669.94;8604205;33;20199;-75
2021/09/18 08:10:56;;;;;;;10.15;7.43;;;;;;;14.51;68.79;100665.91;8602644;33;20240;-75
2021/09/18 08:16:00;;;;;;;10.48;7.85;;;;;;;14.94;67.31;100661.84;8598896;33;20196;-75
2021/09/18 08:21:04;;;;;;;9.38;7.32;;;;;;;15.42;65.98;100665.44;8603803;33;20181;-73
2021/09/18 08:26:07;;;;;;;10.15;6.78;;;;;;;15.77;65.89;100671.94;8603434;33;20189;-73
2021/09/18 08:31:12;;;;;;;9.15;6.50;;;;;;;15.44;66.33;100671.53;8604226;33;20724;-73
2021/09/18 08:36:15;;;;;;;7.75;6.35;;;;;;;16.03;64.86;100680.22;8550111;33;20189;-73
2021/09/18 08:41:18;;;;;;;6.70;5.82;;;;;;;16.02;66.08;100689.34;8603940;33;20193;-74
2021/09/18 08:46:24;;;;;;;5.40;4.38;;;;;;;16.66;60.81;100690.16;8604188;33;20205;-74
2021/09/18 08:51:27;;;;;;;4.03;3.63;;;;;;;17.51;58.92;100687.72;8603631;33;20756;-73
2021/09/18 08:56:30;;;;;;;4.40;4.00;;;;;;;17.71;57.29;100683.72;8603479;33;20137;-74
2021/09/18 09:01:35;;;;;;;4.35;3.30;;;;;;;18.18;57.23;100696.78;8602428;33;20181;-73
2021/09/18 09:06:43;;;;;;;4.63;3.35;;;;;;;18.40;55.17;100691.72;8601935;33;20204;-74
2021/09/18 09:11:51;;;;;;;3.97;3.38;;;;;;;17.99;56.12;100684.38;8603953;33;20192;-74
2021/09/18 09:17:05;;;;;;;4.50;3.33;;;;;;;17.59;56.90;100690.47;8603114;33;21217;-73
2021/09/18 09:22:09;;;;;;;3.53;3.22;;;;;;;17.08;57.74;100687.59;8603238;33;20172;-73
2021/09/18 09:27:14;;;;;;;4.10;3.40;;;;;;;17.69;58.07;100689.31;8602030;33;20185;-73
2021/09/18 09:32:29;;;;;;;4.78;3.85;;;;;;;18.54;54.53;100683.78;8602839;33;20188;-73
2021/09/18 09:37:32;;;;;;;4.07;3.65;;;;;;;18.24;56.22;100685.28;8602762;33;20202;-73
2021/09/18 09:42:43;;;;;;;3.63;3.33;;;;;;;17.53;56.31;100686.53;8623147;33;20185;-73
2021/09/18 09:48:05;;;;;;;3.63;3.30;;;;;;;17.74;57.27;100693.41;8616304;33;20690;-73
2021/09/18 09:53:25;;;;;;;5.13;3.10;;;;;;;17.88;56.83;100698.19;8603267;33;20192;-73
2021/09/18 09:58:27;;;;;;;3.92;3.28;;;;;;;18.31;55.95;100696.31;8602505;33;20219;-73
2021/09/18 10:03:32;;;;;;;4.70;3.70;;;;;;;18.37;56.61;100687.47;8601804;33;20189;-72
2021/09/18 10:08:35;;;;;;;2.75;2.50;;;;;;;18.28;55.83;100689.34;8602066;33;21185;-73
2021/09/18 10:13:41;;;;;;;4.00;2.80;;;;;;;18.58;55.77;100695.16;8601607;33;20239;-74
2021/09/18 10:18:46;;;;;;;3.03;2.70;;;;;;;19.38;53.42;100697.97;8602342;33;20162;-75
2021/09/18 10:23:49;;;;;;;4.25;2.95;;;;;;;19.21;54.39;100696.34;8599812;33;20150;-73
2021/09/18 10:28:52;;;;;;;3.08;2.75;;;;;;;19.92;53.09;100691.00;8601197;33;20195;-72
2021/09/18 10:33:57;;;;;;;3.53;2.78;;;;;;;19.92;52.13;100691.00;8600881;33;20189;-74
2021/09/18 10:39:09;;;;;;;3.08;2.78;;;;;;;19.86;50.54;100685.25;8602698;33;20216;-73
2021/09/18 10:44:14;;;;;;;2.63;2.42;;;;;;;19.12;52.92;100686.50;8606253;33;20441;-72
2021/09/18 10:49:41;;;;;;;3.95;2.70;;;;;;;19.12;54.15;100684.63;8606179;33;20244;-72
2021/09/18 10:55:12;;;;;;;3.10;2.47;;;;;;;19.68;52.38;100681.91;8604756;33;20193;-72
2021/09/18 11:01:00;;;;;;;2.67;2.45;;;;;;;20.03;51.64;100680.53;8609523;33;20226;-72
2021/09/18 11:06:05;;;;;;;3.65;2.92;;;;;;;20.29;51.45;100669.28;8597113;33;20153;-73
2021/09/18 11:11:13;;;;;;;3.65;3.10;;;;;;;20.22;51.59;100670.22;8605302;33;20146;-72
2021/09/18 11:16:23;;;;;;;3.40;2.40;;;;;;;21.72;49.22;100667.59;8603495;33;20161;-72
2021/09/18 11:21:34;;;;;;;2.85;2.55;;;;;;;21.81;48.25;100661.88;8605140;33;20219;-73
2021/09/18 11:26:56;;;;;;;2.28;2.08;;;;;;;20.87;49.72;100658.81;8601314;33;21664;-73
2021/09/18 11:32:10;;;;;;;2.08;1.90;;;;;;;22.25;48.31;100658.16;8601137;33;20153;-74
2021/09/18 11:37:24;;;;;;;2.38;1.70;;;;;;;23.81;45.28;100655.34;8603270;33;20219;-73
2021/09/18 11:42:36;;;;;;;1.65;1.55;;;;;;;24.09;42.54;100657.97;8591441;33;20535;-74
2021/09/18 11:47:42;;;;;;;1.20;1.20;;;;;;;21.93;46.54;100658.63;8604341;33;20239;-75
2021/09/18 11:52:47;;;;;;;1.60;1.30;;;;;;;20.39;49.16;100660.91;8603618;33;20286;-75
2021/09/18 11:58:05;;;;;;;1.70;1.60;;;;;;;20.13;51.53;100656.63;8603884;33;20188;-74
2021/09/18 12:03:08;;;;;;;1.40;1.30;;;;;;;24.54;41.05;100639.88;8580983;33;20195;-74
2021/09/18 12:08:14;;;;;;;1.10;1.00;;;;;;;26.90;36.25;100627.50;8593660;33;20312;-73
2021/09/18 12:13:22;;;;;;;1.08;1.00;;;;;;;27.48;35.59;100630.97;8604174;33;20181;-73
2021/09/18 12:18:27;;;;;;;1.42;1.10;;;;;;;26.45;37.69;100637.84;8604384;33;20270;-74
2021/09/18 12:23:36;;;;;;;1.40;1.20;;;;;;;23.83;42.79;100647.75;8605109;33;20963;-74
2021/09/18 12:28:39;;;;;;;2.28;1.20;;;;;;;22.41;45.95;100648.84;8604293;33;20390;-71
2021/09/18 12:33:43;;;;;;;2.60;1.30;;;;;;;21.51;48.31;100650.09;8603185;33;20274;-74
2021/09/18 12:38:48;;;;;;;1.50;1.40;;;;;;;21.05;49.39;100641.22;8603472;33;20239;-72
2021/09/18 12:44:00;;;;;;;2.05;1.27;;;;;;;20.85;49.06;100640.91;8601591;33;21974;-73
2021/09/18 12:49:05;;;;;;;1.15;1.08;;;;;;;20.56;49.46;100626.13;8602063;33;20193;-73
2021/09/18 12:54:18;;;;;;;2.50;1.20;;;;;;;20.66;49.60;100623.16;8601738;33;20713;-73
2021/09/18 12:59:23;;;;;;;1.38;1.27;;;;;;;20.67;50.01;100622.13;8602795;33;20181;-73
2021/09/18 13:04:29;;;;;;;1.15;1.10;;;;;;;21.20;48.81;100612.03;8601903;33;20315;-73
2021/09/18 13:09:36;;;;;;;1.20;1.08;;;;;;;21.30;49.12;100622.69;8603531;33;20181;-73
2021/09/18 13:14:41;;;;;;;1.98;1.77;;;;;;;21.08;48.90;100619.84;8603012;33;20772;-73
2021/09/18 13:19:47;;;;;;;1.80;1.70;;;;;;;20.54;50.09;100614.56;8604752;33;20184;-73
2021/09/18 13:24:54;;;;;;;1.85;1.60;;;;;;;20.08;50.95;100623.59;8601940;33;20142;-73
2021/09/18 13:29:59;;;;;;;1.95;1.70;;;;;;;19.95;51.67;100628.78;8605451;33;20189;-73
2021/09/18 13:35:02;;;;;;;1.67;1.58;;;;;;;19.61;52.49;100624.56;8601975;33;20177;-74
2021/09/18 13:40:08;;;;;;;1.77;1.60;;;;;;;19.32;52.57;100624.31;8601929;33;20884;-74
2021/09/18 13:45:11;;;;;;;4.00;1.83;;;;;;;19.24;53.41;100617.00;8601705;33;20180;-73
2021/09/18 13:50:15;;;;;;;1.60;1.50;;;;;;;18.99;53.86;100611.63;8601830;33;20613;-73
2021/09/18 13:55:20;;;;;;;1.88;1.25;;;;;;;19.07;54.46;100615.38;8601296;33;20224;-73
2021/09/18 14:00:25;;;;;;;1.25;1.00;;;;;;;19.29;53.55;100611.03;8601619;33;20639;-73
2021/09/18 14:05:28;;;;;;;1.45;1.30;;;;;;;19.24;54.00;100604.25;8601457;33;20193;-73
2021/09/18 14:10:33;;;;;;;2.50;1.50;;;;;;;19.18;54.37;100604.94;8601706;33;20441;-73
2021/09/18 14:15:36;;;;;;;4.50;1.80;;;;;;;19.29;54.71;100602.88;8601953;33;20752;-72
2021/09/18 14:20:39;;;;;;;3.63;2.05;;;;;;;19.34;54.10;100603.19;8601809;33;20195;-72
2021/09/18 14:25:43;;;;;;;2.63;2.08;;;;;;;19.31;54.44;100598.06;8601150;33;20187;-74
2021/09/18 14:30:47;;;;;;;1.70;1.60;;;;;;;19.34;54.59;100592.31;8601350;33;20575;-73
2021/09/18 14:35:50;;;;;;;1.80;1.70;;;;;;;19.13;54.39;100592.88;8600484;33;20181;-73
2021/09/18 14:40:54;;;;;;;2.15;1.95;;;;;;;18.99;55.02;100592.56;8600917;33;20623;-72
2021/09/18 14:45:57;;;;;;;3.00;2.20;;;;;;;18.77;56.08;100591.41;8601217;33;20288;-73
2021/09/18 14:51:00;;;;;;;2.45;2.25;;;;;;;18.73;56.29;100590.06;8602104;33;20154;-73
2021/09/18 14:56:05;;;;;;;2.20;2.00;;;;;;;18.62;56.39;100595.00;8631900;33;20231;-72
2021/09/18 15:01:08;;;;;;;1.92;1.83;;;;;;;18.59;57.10;100571.72;8620854;33;20216;-73
2021/09/18 15:06:12;;;;;;;1.70;1.60;;;;;;;18.55;56.43;100590.25;8601289;33;20622;-73
2021/09/18 15:11:16;;;;;;;2.25;1.73;;;;;;;18.53;57.27;100586.84;8600333;33;20251;-72
2021/09/18 15:16:20;;;;;;;2.00;1.75;;;;;;;18.46;56.91;100582.28;8600996;33;20434;-72
2021/09/18 15:21:23;;;;;;;2.55;1.98;;;;;;;18.28;57.04;100583.28;8599147;33;20189;-72
2021/09/18 15:26:27;;;;;;;2.40;2.00;;;;;;;18.22;57.48;100591.28;8602640;33;20263;-72
2021/09/18 15:31:30;;;;;;;2.47;2.28;;;;;;;18.14;57.99;100583.97;8605294;33;20160;-72
2021/09/18 15:36:34;;;;;;;2.72;2.53;;;;;;;17.92;58.77;100589.00;8603759;33;21617;-72
2021/09/18 15:41:40;;;;;;;2.85;2.17;;;;;;;17.87;59.48;100582.38;8604489;33;20196;-73
2021/09/18 15:46:43;;;;;;;2.35;2.15;;;;;;;17.75;59.74;100581.00;8602431;33;20876;-72
2021/09/18 15:51:47;;;;;;;3.05;1.92;;;;;;;17.74;60.00;100582.84;8604388;33;20142;-72
2021/09/18 15:56:51;;;;;;;2.20;2.00;;;;;;;17.66;60.42;100580.13;8604375;33;20599;-72
2021/09/18 16:01:54;;;;;;;2.42;2.22;;;;;;;17.57;60.30;100578.41;8604756;33;20185;-72
2021/09/18 16:06:59;;;;;;;2.13;1.92;;;;;;;17.55;60.71;100577.72;8605347;33;20188;-72
2021/09/18 16:12:04;;;;;;;2.92;2.00;;;;;;;17.54;60.53;100587.75;8603314;33;20682;-73
2021/09/18 16:17:08;;;;;;;5.28;2.60;;;;;;;17.47;61.42;100581.28;8604121;33;21109;-73
2021/09/18 16:22:11;;;;;;;2.85;2.35;;;;;;;17.41;61.87;100576.47;8602991;33;21412;-72
2021/09/18 16:27:15;;;;;;;3.28;2.70;;;;;;;17.34;62.57;100576.31;8603942;33;20239;-72
2021/09/18 16:32:18;;;;;;;2.95;2.47;;;;;;;17.27;62.46;100583.38;8603627;33;20324;-72
2021/09/18 16:37:22;;;;;;;3.67;2.60;;;;;;;17.16;63.98;100586.41;8603297;33;20912;-73
2021/09/18 16:42:26;;;;;;;3.45;2.92;;;;;;;17.15;63.94;100587.41;8604246;33;20224;-73
2021/09/18 16:47:29;;;;;;;2.50;2.30;;;;;;;17.03;64.77;100592.22;8603655;33;20474;-72
2021/09/18 16:52:34;;;;;;;3.28;2.80;;;;;;;16.92;66.00;100579.81;8605698;33;20247;-72
2021/09/18 16:57:40;;;;;;;2.75;2.50;;;;;;;16.81;66.13;100585.50;8605562;33;20665;-73
2021/09/18 17:02:44;;;;;;;3.58;2.50;;;;;;;16.71;66.17;100587.47;8605876;33;20234;-72
2021/09/18 17:07:47;;;;;;;2.78;2.53;;;;;;;16.65;66.37;100588.09;8604942;33;20181;-72
2021/09/18 17:12:52;;;;;;;4.97;3.15;;;;;;;16.56;66.71;100588.06;8606198;33;20640;-73
2021/09/18 17:17:55;;;;;;;3.10;2.80;;;;;;;16.51;66.39;100592.25;8604039;33;20236;-73
2021/09/18 17:22:58;;;;;;;4.95;3.00;;;;;;;16.45;66.28;100588.28;8604524;33;20272;-73
2021/09/18 17:28:03;;;;;;;3.72;2.78;;;;;;;16.40;66.45;100582.53;8602970;33;20200;-72
2021/09/18 17:33:06;;;;;;;3.35;2.65;;;;;;;16.34;66.58;100592.09;8602444;33;20674;-72
2021/09/18 17:38:09;;;;;;;2.63;2.42;;;;;;;16.30;67.04;100593.44;8603361;33;20246;-73
2021/09/18 17:43:14;;;;;;;3.95;2.70;;;;;;;16.23;67.47;100586.06;8602100;33;20358;-72
2021/09/18 17:48:16;;;;;;;3.65;2.53;;;;;;;16.17;67.91;100594.81;8598435;33;20149;-72
2021/09/18 17:53:20;;;;;;;2.70;2.50;;;;;;;16.15;68.16;100603.09;8600736;33;20191;-72
2021/09/18 17:58:25;;;;;;;3.75;2.90;;;;;;;16.07;68.27;100590.34;8600859;33;20153;-72
2021/09/18 18:03:28;;;;;;;3.13;2.75;;;;;;;16.03;68.20;100597.06;8600659;33;20202;-73
2021/09/18 18:08:31;;;;;;;3.95;2.72;;;;;;;15.99;68.66;100601.09;8601404;33;20508;-73
2021/09/18 18:13:36;;;;;;;4.55;3.17;;;;;;;15.96;69.07;100605.97;8602396;33;20150;-74
2021/09/18 18:18:39;;;;;;;4.20;2.83;;;;;;;15.89;69.04;100600.31;8604053;33;20189;-73
2021/09/18 18:23:42;;;;;;;4.35;2.72;;;;;;;15.83;68.71;100611.78;8603740;33;20185;-73
2021/09/18 18:28:46;;;;;;;2.50;2.28;;;;;;;15.80;68.79;100620.22;8603513;33;20308;-73
2021/09/18 18:33:50;;;;;;;4.55;2.88;;;;;;;15.80;69.00;100615.63;8600440;33;20621;-75
2021/09/18 18:38:53;;;;;;;3.50;2.67;;;;;;;15.82;68.56;100619.03;8602756;33;20738;-73
2021/09/18 18:43:57;;;;;;;3.22;2.60;;;;;;;15.78;68.65;100614.09;8601409;33;20248;-73
2021/09/18 18:49:00;;;;;;;2.92;2.72;;;;;;;15.75;68.41;100620.66;8601016;33;20866;-73
2021/09/18 18:54:04;;;;;;;3.58;3.00;;;;;;;15.73;68.32;100619.09;8594375;33;20157;-74
2021/09/18 18:59:08;;;;;;;3.53;3.20;;;;;;;15.64;68.35;100621.72;8594819;33;20185;-72
2021/09/18 19:04:11;;;;;;;3.65;3.35;;;;;;;15.60;68.96;100620.31;8605332;33;20145;-74
2021/09/18 19:09:15;;;;;;;7.32;4.38;;;;;;;15.57;68.81;100628.72;8608855;33;20316;-73
2021/09/18 19:14:19;;;;;;;7.45;4.90;;;;;;;15.50;69.15;100624.94;8607189;33;20269;-73
2021/09/18 19:19:22;;;;;;;5.25;4.40;;;;;;;15.42;69.51;100616.72;8607322;33;20256;-73
2021/09/18 19:24:26;;;;;;;6.50;3.80;;;;;;;15.34;69.83;100617.47;8606113;33;20848;-74
2021/09/18 19:29:30;;;;;;;5.85;4.13;;;;;;;15.35;70.09;100619.16;8606454;33;20204;-73
2021/09/18 19:34:34;;;;;;;4.53;3.25;;;;;;;15.33;70.01;100620.28;8606078;33;20153;-74
2021/09/18 19:39:38;;;;;;;4.03;3.42;;;;;;;15.27;70.42;100613.59;8605796;33;20185;-73
2021/09/18 19:44:43;;;;;;;4.30;3.90;;;;;;;15.21;70.75;100609.63;8604719;33;20654;-75
2021/09/18 19:49:46;;;;;;;5.07;3.90;;;;;;;15.20;70.71;100620.63;8602880;33;20185;-75
2021/09/18 19:54:49;;;;;;;4.45;3.80;;;;;;;15.18;71.11;100619.91;8605237;33;20149;-74
2021/09/18 19:59:53;;;;;;;3.95;3.63;;;;;;;15.10;71.37;100617.94;8605039;33;20195;-74
2021/09/18 20:04:57;;;;;;;4.95;4.00;;;;;;;15.07;71.40;100622.81;8604441;33;20807;-74
2021/09/18 20:10:00;;;;;;;5.43;3.72;;;;;;;14.93;71.59;100614.16;8609404;33;20522;-74
2021/09/18 20:15:09;;;;;;;4.45;3.70;;;;;;;14.83;72.30;100618.75;8619529;33;20441;-74
2021/09/18 20:20:14;;;;;;;4.15;3.53;;;;;;;14.73;72.51;100618.78;8609291;33;20322;-74
2021/09/18 20:25:17;;;;;;;4.55;3.80;;;;;;;14.66;72.83;100616.81;8599925;33;20283;-74
2021/09/18 20:30:22;;;;;;;3.80;3.50;;;;;;;14.54;73.30;100627.78;8604439;33;20189;-73
2021/09/18 20:35:25;;;;;;;4.22;3.83;;;;;;;14.47;73.42;100623.09;8602894;33;20670;-73
2021/09/18 20:40:28;;;;;;;4.22;3.55;;;;;;;14.38;73.53;100617.56;8604801;33;20199;-74
2021/09/18 20:45:33;;;;;;;4.93;3.60;;;;;;;14.29;73.87;100615.69;8602587;33;20215;-74
2021/09/18 20:50:36;;;;;;;3.90;3.42;;;;;;;14.19;74.53;100614.81;8603653;33;20180;-73
2021/09/18 20:55:40;;;;;;;4.10;3.55;;;;;;;14.09;74.68;100613.97;8602082;33;20196;-73
2021/09/18 21:00:45;;;;;;;4.40;3.95;;;;;;;13.97;75.26;100607.00;8602431;33;21474;-73
2021/09/18 21:05:49;;;;;;;5.03;2.92;;;;;;;13.80;75.35;100613.94;8600391;33;20632;-73
2021/09/18 21:10:52;;;;;;;2.60;2.40;;;;;;;13.77;75.22;100614.19;8594910;33;20279;-73
2021/09/18 21:15:57;;;;;;;2.33;2.13;;;;;;;13.73;75.23;100610.94;8604152;33;20200;-74
2021/09/18 21:21:00;;;;;;;2.45;2.17;;;;;;;13.64;75.42;100615.34;8601516;33;20275;-74
2021/09/18 21:26:03;;;;;;;4.30;2.25;;;;;;;13.60;75.68;100613.91;8601102;33;20694;-73
2021/09/18 21:31:08;;;;;;;2.88;2.67;;;;;;;13.56;75.85;100625.13;8602486;33;20259;-73
2021/09/18 21:36:11;;;;;;;3.15;2.60;;;;;;;13.53;75.88;100623.53;8602386;33;20188;-74
2021/09/18 21:41:14;;;;;;;3.05;2.75;;;;;;;13.49;76.04;100628.38;8601426;33;20246;-73
2021/09/18 21:46:18;;;;;;;2.53;2.33;;;;;;;13.50;76.29;100618.44;8598963;33;20185;-73
2021/09/18 21:51:21;;;;;;;3.08;2.83;;;;;;;13.43;76.31;100619.97;8599972;33;20716;-73
2021/09/18 21:56:24;;;;;;;3.50;3.20;;;;;;;13.40;76.69;100615.69;8600554;33;20804;-74
2021/09/18 22:01:31;;;;;;;3.00;2.70;;;;;;;13.38;77.26;100609.56;8594056;33;20154;-73
2021/09/18 22:06:37;;;;;;;4.00;3.20;;;;;;;13.39;76.95;100605.03;8599113;33;20674;-73
2021/09/18 22:11:40;;;;;;;4.03;3.70;;;;;;;13.40;76.67;100604.03;8601011;33;20208;-73
2021/09/18 22:16:45;;;;;;;4.70;3.63;;;;;;;13.42;76.75;100608.31;8600677;33;20222;-73
2021/09/18 22:21:48;;;;;;;4.07;3.45;;;;;;;13.42;76.54;100607.47;8600191;33;22011;-73
2021/09/18 22:26:51;;;;;;;3.85;3.55;;;;;;;13.41;76.69;100609.31;8600428;33;20142;-73
2021/09/18 22:31:56;;;;;;;3.92;3.53;;;;;;;13.43;76.94;100603.75;8599994;33;20195;-74
2021/09/18 22:36:59;;;;;;;6.00;3.72;;;;;;;13.45;76.45;100601.78;8599871;33;20367;-74
2021/09/18 22:42:03;;;;;;;4.20;3.80;;;;;;;13.41;76.49;100617.41;8600077;33;20412;-74
2021/09/18 22:47:07;;;;;;;4.88;4.18;;;;;;;13.45;76.32;100608.03;8599492;33;20255;-74
2021/09/18 22:52:10;;;;;;;3.75;3.42;;;;;;;13.44;76.49;100617.13;8599909;33;21005;-74
2021/09/18 22:57:15;;;;;;;4.18;3.55;;;;;;;13.34;75.98;100602.72;8597828;33;20547;-74
2021/09/18 23:02:20;;;;;;;3.03;2.55;;;;;;;13.24;75.77;100599.13;8600207;33;20186;-73
2021/09/18 23:07:24;;;;;;;3.88;2.63;;;;;;;13.26;75.67;100606.09;8599161;33;20922;-73
2021/09/18 23:12:28;;;;;;;2.67;2.38;;;;;;;13.27;75.38;100598.84;8600602;33;20678;-74
2021/09/18 23:17:33;;;;;;;3.10;2.33;;;;;;;13.28;75.38;100596.03;8598980;33;20500;-73
2021/09/18 23:22:37;;;;;;;3.17;2.42;;;;;;;13.23;75.35;100592.88;8598999;33;20246;-73
2021/09/18 23:27:44;;;;;;;3.03;2.17;;;;;;;13.20;75.33;100582.38;8597403;33;21453;-73
2021/09/18 23:32:49;;;;;;;3.25;2.58;;;;;;;13.13;75.42;100580.34;8599301;33;20193;-74
2021/09/18 23:37:52;;;;;;;2.78;2.45;;;;;;;13.08;75.21;100578.06;8598447;33;20266;-73